Time;durP1;ratioP1;P1;durP2;ratioP2;P2;SDS_P1;SDS_P2;PMS_P1;PMS_P2;Temp;Humidity;BMP_temperature;BMP_pressure;BME280_temperature;BME280_humidity;BME280_pressure;Samples;Min_cycle;Max_cycle;Signal;HPM_P1;HPM_P2
2021/07/24 00:00:56;;;;;;;12.85;5.70;;;;;;;17.24;72.87;100699.98;1849235;77;20908;-70
2021/07/24 00:03:24;;;;;;;13.62;6.20;;;;;;;17.22;72.96;100694.46;1849301;76;20929;-70
2021/07/24 00:05:50;;;;;;;10.72;5.53;;;;;;;17.20;72.93;100695.91;1849442;77;22186;-69
2021/07/24 00:08:17;;;;;;;13.88;5.87;;;;;;;17.17;72.97;100694.37;1849335;77;20900;-69
2021/07/24 00:10:45;;;;;;;16.20;6.08;;;;;;;17.16;72.80;100699.33;1849124;77;20918;-69
2021/07/24 00:13:14;;;;;;;11.80;5.22;;;;;;;17.16;72.81;100695.82;1849219;77;21414;-70
2021/07/24 00:15:43;;;;;;;12.13;5.30;;;;;;;17.12;72.99;100699.70;1849256;77;20957;-70
2021/07/24 00:18:10;;;;;;;14.20;5.72;;;;;;;17.09;73.00;100700.81;1849596;77;22093;-69
2021/07/24 00:20:37;;;;;;;11.00;5.37;;;;;;;17.00;73.23;100698.95;1849579;77;20861;-71
2021/07/24 00:23:03;;;;;;;10.20;5.25;;;;;;;17.00;73.23;100698.95;1849341;77;20897;-70
2021/07/24 00:25:32;;;;;;;11.48;4.87;;;;;;;17.02;73.40;100701.48;1849161;76;20996;-69
2021/07/24 00:27:58;;;;;;;12.47;5.75;;;;;;;17.02;73.48;100702.31;1834843;75;21337;-70
2021/07/24 00:30:25;;;;;;;14.68;5.40;;;;;;;17.02;73.51;100700.99;1834699;77;21489;-71
2021/07/24 00:32:53;;;;;;;11.75;4.78;;;;;;;17.02;73.51;100700.99;1834587;77;20958;-70
2021/07/24 00:35:20;;;;;;;11.40;5.15;;;;;;;17.00;73.31;100698.95;1835091;77;20923;-70
2021/07/24 00:37:47;;;;;;;8.83;4.53;;;;;;;17.01;73.24;100705.09;1834777;77;20844;-70
2021/07/24 00:40:16;;;;;;;9.83;5.47;;;;;;;17.02;73.04;100699.66;1834943;76;20934;-70
2021/07/24 00:42:46;;;;;;;7.03;3.83;;;;;;;17.02;73.23;100703.64;1834982;76;21103;-71
2021/07/24 00:45:16;;;;;;;9.60;3.83;;;;;;;17.02;72.93;100706.78;1834595;77;21013;-71
2021/07/24 00:47:45;;;;;;;7.72;3.90;;;;;;;17.02;73.03;100707.62;1834966;77;20911;-70
2021/07/24 00:50:18;;;;;;;6.97;4.42;;;;;;;16.99;72.81;100702.09;1833652;76;21330;-71
2021/07/24 00:52:45;;;;;;;7.40;3.98;;;;;;;16.98;72.92;100707.52;1834752;77;20942;-72
2021/07/24 00:55:13;;;;;;;15.03;4.67;;;;;;;16.95;72.88;100707.30;1835076;76;21416;-71
2021/07/24 00:57:46;;;;;;;7.87;3.87;;;;;;;16.92;72.88;100706.74;1834901;77;20823;-69
2021/07/24 01:00:15;;;;;;;8.30;3.95;;;;;;;16.88;73.17;100708.80;1834830;77;20863;-70
2021/07/24 01:02:42;;;;;;;7.78;4.42;;;;;;;16.83;73.03;100704.85;1835054;77;21516;-70
2021/07/24 01:05:11;;;;;;;11.10;4.37;;;;;;;16.76;73.21;100702.72;1834771;77;20969;-69
2021/07/24 01:07:39;;;;;;;10.28;4.83;;;;;;;16.76;73.23;100705.82;1834912;77;21147;-70
2021/07/24 01:10:09;;;;;;;14.05;5.83;;;;;;;16.73;73.38;100704.77;1834673;77;21396;-70
2021/07/24 01:12:37;;;;;;;18.32;5.35;;;;;;;16.71;73.67;100706.70;1834694;77;20906;-70
2021/07/24 01:15:06;;;;;;;11.88;5.17;;;;;;;16.69;73.67;100708.16;1834593;77;20914;-70
2021/07/24 01:17:33;;;;;;;9.65;4.90;;;;;;;16.66;73.64;100706.27;1834727;76;20946;-70
2021/07/24 01:20:05;;;;;;;11.25;3.87;;;;;;;16.64;73.64;100709.03;1834735;78;21055;-71
2021/07/24 01:22:33;;;;;;;10.05;4.67;;;;;;;16.62;73.82;100707.48;1834990;77;21039;-70
2021/07/24 01:25:00;;;;;;;7.97;4.37;;;;;;;16.58;73.76;100704.25;1834712;77;20993;-70
2021/07/24 01:27:27;;;;;;;8.03;3.95;;;;;;;16.57;73.46;100707.87;1844051;77;20822;-70
2021/07/24 01:29:55;;;;;;;5.08;3.47;;;;;;;16.55;73.59;100704.02;1849236;76;20913;-70
2021/07/24 01:32:24;;;;;;;5.87;3.12;;;;;;;16.54;73.63;100706.33;1848295;77;21110;-70
2021/07/24 01:34:51;;;;;;;6.40;3.58;;;;;;;16.51;73.57;100715.00;1822982;77;20968;-69
2021/07/24 01:37:20;;;;;;;10.75;4.17;;;;;;;16.48;73.63;100713.95;1823059;77;20925;-70
2021/07/24 01:39:47;;;;;;;6.95;4.00;;;;;;;16.43;73.70;100709.03;1849047;77;20912;-69
2021/07/24 01:42:14;;;;;;;10.58;4.40;;;;;;;16.37;73.92;100714.83;1849204;77;20956;-70
2021/07/24 01:44:45;;;;;;;7.30;4.12;;;;;;;16.31;74.04;100712.69;1848685;77;20878;-70
2021/07/24 01:47:13;;;;;;;9.10;4.28;;;;;;;16.24;74.36;100718.13;1849413;77;21355;-69
2021/07/24 01:52:49;;;;;;;9.78;4.37;;;;;;;16.16;74.59;100713.00;1849650;77;21410;-70
2021/07/24 01:55:27;;;;;;;11.78;4.40;;;;;;;16.16;74.88;100718.75;1849333;77;20913;-69
2021/07/24 01:57:59;;;;;;;10.00;3.80;;;;;;;16.13;74.91;100719.84;1842163;76;21481;-70
2021/07/24 02:00:28;;;;;;;9.03;4.08;;;;;;;16.11;75.19;100720.94;1849464;77;20909;-69
2021/07/24 02:03:02;;;;;;;10.72;5.87;;;;;;;16.11;75.19;100720.94;1848387;77;20857;-70
2021/07/24 02:05:49;;;;;;;7.50;4.28;;;;;;;16.11;75.40;100718.30;1845523;76;21031;-69
2021/07/24 02:08:20;;;;;;;11.40;4.80;;;;;;;16.11;75.26;100718.30;1849307;77;20877;-71
2021/07/24 02:10:49;;;;;;;13.90;6.17;;;;;;;16.10;75.47;100721.43;1849546;77;21101;-70
2021/07/24 02:13:16;;;;;;;10.13;5.00;;;;;;;16.10;75.32;100713.98;1849198;77;20968;-70
2021/07/24 02:15:43;;;;;;;10.13;4.97;;;;;;;16.08;75.39;100719.39;1849283;77;20936;-71
2021/07/24 02:18:17;;;;;;;14.83;4.47;;;;;;;16.07;75.45;100712.89;1849199;77;21027;-71
2021/07/24 02:20:46;;;;;;;12.93;4.75;;;;;;;16.06;75.39;100722.64;1849426;77;21307;-71
2021/07/24 02:23:14;;;;;;;13.08;6.00;;;;;;;16.07;75.16;100720.83;1849336;77;21146;-72
2021/07/24 02:25:44;;;;;;;11.55;5.42;;;;;;;16.06;75.30;100716.02;1849203;77;20877;-71
2021/07/24 02:28:12;;;;;;;13.72;5.30;;;;;;;16.06;75.26;100719.99;1855874;77;20887;-70
2021/07/24 02:30:42;;;;;;;10.45;5.17;;;;;;;16.06;75.19;100725.28;1859942;77;20950;-70
2021/07/24 02:33:10;;;;;;;15.13;4.55;;;;;;;16.06;75.14;100719.99;1860368;77;20848;-71
2021/07/24 02:35:36;;;;;;;10.18;3.92;;;;;;;16.06;75.26;100717.84;1829235;77;21117;-70
2021/07/24 02:38:06;;;;;;;12.70;3.52;;;;;;;16.07;75.38;100716.37;1858124;77;20911;-69
2021/07/24 02:40:33;;;;;;;14.68;4.08;;;;;;;16.07;75.55;100726.95;1860116;77;20946;-70
2021/07/24 02:43:08;;;;;;;5.20;3.22;;;;;;;16.06;75.76;100723.12;1859584;76;20895;-69
2021/07/24 02:45:36;;;;;;;10.38;3.92;;;;;;;16.05;75.73;100726.27;1859973;76;20989;-69
2021/07/24 02:48:04;;;;;;;11.57;5.47;;;;;;;16.06;75.62;100725.28;1860009;77;21068;-69
2021/07/24 02:50:32;;;;;;;22.93;7.50;;;;;;;16.06;75.62;100725.28;1829033;77;20970;-70
2021/07/24 02:53:00;;;;;;;31.90;9.85;;;;;;;16.08;75.44;100723.36;1860060;77;20887;-70
2021/07/24 02:55:28;;;;;;;25.55;10.13;;;;;;;16.10;75.35;100728.05;1829107;77;20927;-70
2021/07/24 02:57:55;;;;;;;28.15;10.85;;;;;;;16.10;75.35;100728.05;1860090;77;21360;-70
2021/07/24 03:00:22;;;;;;;39.10;13.30;;;;;;;16.12;75.40;100730.58;1860280;77;21470;-71
2021/07/24 03:02:48;;;;;;;45.70;15.38;;;;;;;16.11;75.15;100732.35;1860047;77;20844;-71
2021/07/24 03:05:16;;;;;;;34.88;13.08;;;;;;;16.12;75.09;100730.58;1859921;77;20915;-70
2021/07/24 03:07:43;;;;;;;20.10;8.20;;;;;;;16.15;74.93;100735.60;1860013;77;21405;-71
2021/07/24 03:10:11;;;;;;;18.02;7.83;;;;;;;16.18;75.00;100732.70;1860000;77;21013;-71
2021/07/24 03:12:38;;;;;;;20.27;7.00;;;;;;;16.22;75.12;100739.42;1860069;76;22128;-71
2021/07/24 03:15:06;;;;;;;15.35;5.37;;;;;;;16.22;75.28;100731.48;1859900;77;20899;-71
2021/07/24 03:17:33;;;;;;;13.80;5.05;;;;;;;16.24;75.37;100736.66;1860180;77;20954;-71
2021/07/24 03:20:02;;;;;;;12.73;4.80;;;;;;;16.27;75.40;100737.72;1859894;77;20883;-71
2021/07/24 03:22:29;;;;;;;14.35;4.92;;;;;;;16.30;75.59;100740.13;1859984;77;20911;-70
2021/07/24 03:24:56;;;;;;;15.38;6.35;;;;;;;16.33;75.54;100740.70;1860340;76;22210;-70
2021/07/24 03:27:24;;;;;;;11.45;4.60;;;;;;;16.36;75.27;100741.79;1855705;76;21027;-71
2021/07/24 03:29:50;;;;;;;13.10;4.55;;;;;;;16.41;75.40;100730.82;1849555;77;20913;-71
2021/07/24 03:32:17;;;;;;;13.55;5.42;;;;;;;16.49;75.20;100743.41;1849380;76;20874;-71
2021/07/24 03:34:45;;;;;;;12.10;5.45;;;;;;;16.55;75.17;100743.73;1851398;77;21078;-72
2021/07/24 03:37:12;;;;;;;11.10;5.50;;;;;;;16.61;75.15;100741.53;1849317;77;21119;-70
2021/07/24 03:39:39;;;;;;;11.80;4.87;;;;;;;16.68;75.22;100744.05;1849240;77;20869;-71
2021/07/24 03:42:07;;;;;;;9.15;4.35;;;;;;;16.75;75.10;100753.16;1849278;76;20960;-70
2021/07/24 03:44:34;;;;;;;26.75;7.70;;;;;;;16.82;75.13;100753.02;1849157;77;20917;-71
2021/07/24 03:47:01;;;;;;;17.62;6.55;;;;;;;16.90;75.00;100753.71;1849198;77;20948;-70
2021/07/24 03:49:30;;;;;;;17.80;5.92;;;;;;;16.98;74.80;100753.42;1849316;76;21952;-71
2021/07/24 03:51:57;;;;;;;11.95;5.53;;;;;;;17.09;74.63;100756.45;1850862;76;20833;-71
2021/07/24 03:54:24;;;;;;;11.05;5.42;;;;;;;17.18;74.36;100751.69;1849352;77;20921;-71
2021/07/24 03:56:51;;;;;;;7.95;4.67;;;;;;;17.27;73.61;100755.36;1850904;76;20952;-71
2021/07/24 03:59:18;;;;;;;7.85;3.47;;;;;;;17.37;73.95;100752.28;1849416;77;20858;-71
2021/07/24 04:01:46;;;;;;;7.00;3.12;;;;;;;17.46;73.81;100755.95;1849422;77;22068;-71
2021/07/24 04:04:14;;;;;;;7.50;4.08;;;;;;;17.56;73.54;100760.81;1849099;77;20992;-71
2021/07/24 04:06:40;;;;;;;14.60;3.70;;;;;;;17.65;73.44;100760.97;1849425;77;21340;-70
2021/07/24 04:09:09;;;;;;;6.75;2.92;;;;;;;17.73;73.28;100760.64;1849089;77;20885;-69
2021/07/24 04:11:44;;;;;;;9.53;3.42;;;;;;;17.83;73.04;100762.52;1848910;77;20940;-73
2021/07/24 04:14:10;;;;;;;7.40;2.85;;;;;;;17.94;72.80;100763.27;1848579;77;21804;-68
2021/07/24 04:16:38;;;;;;;6.37;2.47;;;;;;;18.06;72.40;100761.81;1850691;76;20862;-70
2021/07/24 04:19:05;;;;;;;7.50;2.85;;;;;;;18.18;71.87;100762.86;1849211;77;20877;-70
2021/07/24 04:21:32;;;;;;;13.70;3.30;;;;;;;18.34;71.61;100763.67;1849393;77;21513;-70
2021/07/24 04:23:59;;;;;;;3.67;2.12;;;;;;;18.53;71.05;100762.81;1849070;77;20897;-70
2021/07/24 04:26:26;;;;;;;6.42;2.87;;;;;;;18.83;70.22;100757.88;1849728;77;21086;-70
2021/07/24 04:28:53;;;;;;;3.37;2.00;;;;;;;19.26;69.05;100759.16;1858207;77;20961;-69
2021/07/24 04:31:21;;;;;;;9.78;2.40;;;;;;;19.80;67.36;100766.02;1859971;77;20867;-70
2021/07/24 04:33:47;;;;;;;6.05;2.75;;;;;;;20.35;65.53;100765.61;1859829;77;20922;-71
2021/07/24 04:36:15;;;;;;;10.65;2.77;;;;;;;20.90;63.98;100763.59;1859988;77;20859;-69
2021/07/24 04:38:42;;;;;;;6.12;2.27;;;;;;;21.47;62.27;100769.78;1859844;77;21138;-70
2021/07/24 04:41:16;;;;;;;4.33;2.47;;;;;;;22.01;61.13;100771.31;1859754;77;20911;-71
2021/07/24 04:43:43;;;;;;;;;;;;;;;22.48;59.36;100768.94;1862628;76;20949;-70
2021/07/24 04:46:10;;;;;;;5.92;2.75;;;;;;;22.91;57.37;100756.20;1860244;77;20126;-70
2021/07/24 04:48:37;;;;;;;3.83;1.40;;;;;;;23.28;56.40;100762.86;1859797;77;20852;-70
2021/07/24 04:51:04;;;;;;;6.33;1.92;;;;;;;23.65;55.20;100757.36;1859964;76;21435;-70
2021/07/24 04:53:32;;;;;;;4.72;2.20;;;;;;;24.06;54.30;100760.38;1859861;76;20981;-70
2021/07/24 04:56:02;;;;;;;4.40;1.90;;;;;;;24.47;53.07;100762.25;1860237;77;20871;-71
2021/07/24 04:58:30;;;;;;;5.70;2.20;;;;;;;24.85;52.26;100766.83;1859840;77;20887;-71
2021/07/24 05:00:59;;;;;;;2.87;1.80;;;;;;;25.18;51.21;100768.67;1859254;77;20836;-70
2021/07/24 05:03:26;;;;;;;2.52;1.42;;;;;;;25.54;50.37;100769.30;1859847;77;21337;-71
2021/07/24 05:05:53;;;;;;;6.95;2.05;;;;;;;25.80;49.42;100762.91;1859834;77;20864;-70
2021/07/24 05:08:24;;;;;;;1.87;1.60;;;;;;;26.05;48.90;100770.15;1860190;77;20906;-70
2021/07/24 05:10:51;;;;;;;2.83;2.05;;;;;;;26.37;48.18;100768.50;1859905;77;20903;-70
2021/07/24 05:13:18;;;;;;;4.87;1.95;;;;;;;26.66;47.62;100775.13;1860145;77;20895;-70
2021/07/24 05:15:45;;;;;;;3.05;1.50;;;;;;;26.91;46.76;100766.63;1859981;77;22142;-71
2021/07/24 05:18:13;;;;;;;3.58;1.55;;;;;;;27.12;45.92;100761.69;1860160;77;20950;-71
2021/07/24 05:20:40;;;;;;;5.12;2.17;;;;;;;27.34;45.50;100762.47;1860006;76;20973;-71
2021/07/24 05:23:08;;;;;;;3.05;1.67;;;;;;;27.59;45.02;100768.70;1859776;76;20867;-70
2021/07/24 05:25:35;;;;;;;4.50;2.33;;;;;;;27.83;44.16;100765.48;1859984;77;20962;-70
2021/07/24 05:28:02;;;;;;;2.85;1.87;;;;;;;28.02;44.01;100766.63;1859970;77;21088;-69
2021/07/24 05:30:31;;;;;;;2.50;2.30;;;;;;;28.27;43.53;100769.56;1859949;77;20875;-70
2021/07/24 05:32:58;;;;;;;4.30;2.17;;;;;;;28.51;43.11;100774.10;1859797;77;20879;-70
2021/07/24 05:35:25;;;;;;;2.58;1.80;;;;;;;28.79;42.41;100777.10;1859802;77;20911;-70
2021/07/24 05:37:52;;;;;;;8.48;3.42;;;;;;;29.06;41.69;100774.70;1859945;76;20990;-71
2021/07/24 05:42:44;;;;;;;4.28;1.77;;;;;;;29.39;41.08;100768.40;1798557;78;23250;-70
2021/07/24 05:45:12;;;;;;;5.62;1.90;;;;;;;29.51;40.77;100761.30;1758406;80;20853;-70
2021/07/24 05:47:39;;;;;;;2.42;1.62;;;;;;;29.82;39.83;100769.75;1758361;81;21799;-72
2021/07/24 05:50:06;;;;;;;4.03;2.00;;;;;;;30.10;39.30;100772.92;1758277;80;20900;-73
2021/07/24 05:52:33;;;;;;;5.15;1.55;;;;;;;30.37;38.80;100772.75;1758391;80;20975;-72
2021/07/24 05:55:00;;;;;;;3.22;1.87;;;;;;;30.62;38.45;100770.61;1758312;80;20925;-72
2021/07/24 05:57:27;;;;;;;3.17;1.85;;;;;;;30.86;38.07;100776.56;1758302;81;20955;-71
2021/07/24 05:59:53;;;;;;;4.05;1.37;;;;;;;31.08;37.80;100778.84;1758241;80;21078;-70
2021/07/24 06:02:20;;;;;;;3.70;1.57;;;;;;;31.20;37.92;100774.34;1758383;81;21370;-71
2021/07/24 06:04:47;;;;;;;4.80;2.10;;;;;;;31.31;38.09;100780.38;1758524;81;20972;-68
2021/07/24 06:07:14;;;;;;;1.85;1.30;;;;;;;31.40;37.55;100785.79;1758315;80;20932;-70
2021/07/24 06:09:41;;;;;;;5.65;1.95;;;;;;;31.50;37.07;100784.46;1758550;81;20924;-71
2021/07/24 06:12:09;;;;;;;1.87;1.50;;;;;;;31.65;36.70;100784.08;1758291;81;21513;-72
2021/07/24 06:14:36;;;;;;;2.02;1.50;;;;;;;31.77;36.21;100784.95;1758473;81;21416;-73
2021/07/24 06:17:04;;;;;;;3.55;1.60;;;;;;;31.84;35.80;100780.80;1758284;81;20857;-72
2021/07/24 06:19:32;;;;;;;3.30;1.42;;;;;;;31.95;35.50;100783.59;1758250;81;20900;-73
2021/07/24 06:21:59;;;;;;;2.60;1.50;;;;;;;32.10;35.59;100781.00;1758301;81;20927;-73
2021/07/24 06:24:26;;;;;;;3.55;1.95;;;;;;;32.28;35.30;100786.36;1696550;83;21130;-73
2021/07/24 06:26:53;;;;;;;5.70;1.87;;;;;;;32.43;35.54;100789.47;1724717;83;21396;-72
2021/07/24 06:29:20;;;;;;;3.08;1.57;;;;;;;32.57;35.08;100785.21;1724964;83;21464;-72
2021/07/24 06:31:47;;;;;;;5.58;1.75;;;;;;;32.63;35.60;100781.56;1724663;82;21022;-75
2021/07/24 06:34:14;;;;;;;9.00;2.37;;;;;;;32.75;34.69;100785.64;1724972;83;20943;-73
2021/07/24 06:36:41;;;;;;;3.35;1.57;;;;;;;32.86;34.29;100783.45;1724810;83;21283;-72
2021/07/24 06:39:08;;;;;;;6.37;2.52;;;;;;;32.90;34.46;100779.21;1724985;83;20966;-71
2021/07/24 06:41:37;;;;;;;1.60;1.50;;;;;;;32.95;34.26;100786.14;1718498;81;21355;-73
2021/07/24 06:44:04;;;;;;;4.28;1.42;;;;;;;32.95;34.66;100783.94;1709394;82;20896;-72
2021/07/24 06:46:31;;;;;;;3.20;1.52;;;;;;;33.04;34.23;100782.00;1709419;83;20923;-72
2021/07/24 06:48:59;;;;;;;4.05;1.67;;;;;;;33.17;34.01;100784.19;1709475;84;21974;-71
2021/07/24 06:51:26;;;;;;;4.92;1.67;;;;;;;33.37;34.29;100790.09;1709384;82;20864;-72
2021/07/24 06:53:53;;;;;;;4.70;2.47;;;;;;;33.58;33.34;100776.91;1708881;84;20912;-72
2021/07/24 06:56:20;;;;;;;2.67;1.67;;;;;;;33.70;33.38;100776.36;1708955;84;20932;-72
2021/07/24 06:58:47;;;;;;;4.22;1.62;;;;;;;33.77;33.24;100773.50;1708884;84;21453;-72
2021/07/24 07:01:14;;;;;;;4.53;1.50;;;;;;;33.90;33.24;100781.36;1708568;82;21536;-73
2021/07/24 07:03:41;;;;;;;4.53;2.10;;;;;;;34.07;32.69;100782.78;1708711;84;20931;-72
2021/07/24 07:06:08;;;;;;;2.42;1.60;;;;;;;34.21;32.26;100779.23;1708861;84;20912;-72
2021/07/24 07:08:35;;;;;;;3.52;2.00;;;;;;;34.35;32.56;100782.47;1708761;82;20925;-73
2021/07/24 07:11:03;;;;;;;6.80;1.65;;;;;;;34.48;32.12;100778.06;1709052;83;20920;-72
2021/07/24 07:13:30;;;;;;;8.48;1.72;;;;;;;34.65;32.34;100782.19;1708873;84;21158;-73
2021/07/24 07:15:57;;;;;;;5.03;1.82;;;;;;;34.80;31.74;100781.06;1709252;84;20865;-70
2021/07/24 07:18:24;;;;;;;2.00;1.65;;;;;;;34.80;31.23;100779.70;1709453;84;20943;-73
2021/07/24 07:20:51;;;;;;;3.27;1.80;;;;;;;34.61;31.53;100778.27;1709930;84;20900;-73
2021/07/24 07:23:19;;;;;;;5.85;1.70;;;;;;;34.54;31.34;100779.80;1709099;82;21445;-72
2021/07/24 07:25:47;;;;;;;5.28;1.85;;;;;;;34.43;31.53;100776.63;1708867;84;21633;-72
2021/07/24 07:28:14;;;;;;;5.90;1.98;;;;;;;34.34;31.78;100778.92;1708954;84;20873;-72
2021/07/24 07:30:41;;;;;;;6.28;1.92;;;;;;;34.41;31.73;100781.48;1709190;84;21458;-71
2021/07/24 07:33:08;;;;;;;2.80;1.60;;;;;;;34.61;31.74;100776.36;1708733;84;20964;-72
2021/07/24 07:35:35;;;;;;;6.50;2.00;;;;;;;34.88;30.74;100778.44;1709160;84;20896;-72
2021/07/24 07:38:04;;;;;;;2.37;1.60;;;;;;;35.05;29.80;100774.33;1708223;83;21098;-73
2021/07/24 07:40:31;;;;;;;2.40;1.60;;;;;;;35.24;30.11;100773.00;1708971;84;21058;-72
2021/07/24 07:42:58;;;;;;;2.20;1.80;;;;;;;35.44;30.21;100771.06;1709775;83;20971;-73
2021/07/24 07:45:24;;;;;;;3.75;1.40;;;;;;;35.67;30.47;100761.81;1712025;83;21443;-73
2021/07/24 07:47:52;;;;;;;4.80;1.90;;;;;;;35.87;29.19;100763.93;1711861;83;21485;-73
2021/07/24 07:50:19;;;;;;;2.08;1.52;;;;;;;35.99;29.03;100765.67;1712088;83;21483;-74
2021/07/24 07:52:46;;;;;;;4.97;1.72;;;;;;;36.11;28.94;100766.36;1711835;83;20873;-68
2021/07/24 07:55:15;;;;;;;3.72;1.60;;;;;;;36.19;28.92;100763.71;1711677;83;21010;-69
2021/07/24 07:57:42;;;;;;;4.03;1.45;;;;;;;36.28;28.58;100763.52;1711885;83;21012;-67
2021/07/24 08:00:10;;;;;;;2.52;1.30;;;;;;;36.18;27.64;100761.53;1712156;82;20900;-69
2021/07/24 08:02:43;;;;;;;1.85;1.35;;;;;;;36.00;27.09;100764.61;1711883;83;21160;-68
2021/07/24 08:05:10;;;;;;;2.00;1.80;;;;;;;35.87;27.91;100761.75;1712000;82;20956;-68
2021/07/24 08:07:37;;;;;;;4.30;1.30;;;;;;;35.86;28.00;100764.17;1711506;83;21034;-68
2021/07/24 08:10:07;;;;;;;5.45;1.60;;;;;;;35.93;27.30;100763.97;1711844;83;20848;-68
2021/07/24 08:12:34;;;;;;;2.35;1.35;;;;;;;35.85;27.60;100768.81;1712397;83;20845;-67
2021/07/24 08:15:04;;;;;;;3.70;1.52;;;;;;;35.94;28.37;100767.00;1711804;83;20888;-68
2021/07/24 08:17:32;;;;;;;1.42;1.30;;;;;;;36.12;28.32;100772.12;1711735;83;20888;-68
2021/07/24 08:19:59;;;;;;;1.65;1.50;;;;;;;36.26;27.78;100769.26;1711777;83;20903;-68
2021/07/24 08:22:26;;;;;;;5.08;1.60;;;;;;;36.24;26.90;100763.23;1712036;83;21409;-70
2021/07/24 08:24:52;;;;;;;5.08;1.67;;;;;;;36.33;27.66;100766.31;1711991;83;21398;-69
2021/07/24 08:27:19;;;;;;;7.83;2.00;;;;;;;36.43;27.31;100762.28;1712197;83;21727;-69
2021/07/24 08:29:46;;;;;;;2.45;1.60;;;;;;;36.54;27.53;100767.28;1711811;83;20932;-68
2021/07/24 08:32:13;;;;;;;6.92;1.75;;;;;;;36.52;26.88;100766.72;1712074;83;20900;-68
2021/07/24 08:34:41;;;;;;;4.22;1.50;;;;;;;36.37;26.31;100763.31;1711776;83;20877;-69
2021/07/24 08:37:08;;;;;;;2.65;1.72;;;;;;;36.49;27.17;100768.63;1712269;83;20990;-68
2021/07/24 08:39:35;;;;;;;4.67;1.67;;;;;;;36.68;26.52;100768.50;1711759;83;21124;-69
2021/07/24 08:42:04;;;;;;;5.03;1.75;;;;;;;36.79;26.66;100771.31;1712842;82;20891;-69
2021/07/24 08:44:36;;;;;;;1.70;1.30;;;;;;;36.66;25.92;100771.22;1716291;83;21474;-68
2021/07/24 08:47:03;;;;;;;;;;;;;;;36.40;25.97;100762.00;1737109;82;20928;-68
2021/07/24 08:49:30;;;;;;;3.90;1.95;;;;;;;36.32;25.53;100760.55;1752536;80;20117;-68
2021/07/24 08:51:59;;;;;;;5.08;1.47;;;;;;;36.18;26.75;100761.53;1752508;82;21127;-69
2021/07/24 08:54:26;;;;;;;3.35;1.62;;;;;;;36.18;26.49;100764.81;1752402;80;20951;-68
2021/07/24 08:56:53;;;;;;;4.70;2.08;;;;;;;36.27;26.67;100757.78;1752480;82;21355;-70
2021/07/24 08:59:22;;;;;;;4.22;1.80;;;;;;;36.41;27.25;100763.08;1752458;82;20980;-67
2021/07/24 09:01:53;;;;;;;5.60;1.95;;;;;;;36.19;26.23;100765.08;1752538;82;20940;-70
2021/07/24 09:04:22;;;;;;;4.72;1.70;;;;;;;35.92;27.13;100762.34;1752507;80;21805;-68
2021/07/24 09:06:54;;;;;;;4.37;1.35;;;;;;;35.53;26.82;100766.50;1752450;82;20921;-71
2021/07/24 09:09:22;;;;;;;3.00;1.90;;;;;;;35.26;27.81;100770.00;1752569;80;21044;-68
2021/07/24 09:11:50;;;;;;;3.50;1.57;;;;;;;35.07;28.42;100768.09;1752428;82;20940;-69
2021/07/24 09:14:16;;;;;;;2.62;1.27;;;;;;;35.11;27.47;100773.33;1752777;82;20853;-68
2021/07/24 09:16:45;;;;;;;2.60;1.50;;;;;;;35.29;27.33;100773.05;1752453;82;20893;-68
2021/07/24 09:19:12;;;;;;;2.45;1.70;;;;;;;35.47;26.83;100763.73;1752500;80;21438;-69
2021/07/24 09:21:39;;;;;;;4.35;2.15;;;;;;;35.56;26.47;100767.38;1752419;82;21463;-68
2021/07/24 09:24:24;;;;;;;1.98;1.60;;;;;;;35.62;26.58;100755.42;1752372;82;20892;-68
2021/07/24 09:26:50;;;;;;;2.75;1.98;;;;;;;35.75;26.39;100756.42;1752481;80;21406;-69
2021/07/24 09:29:19;;;;;;;2.47;1.55;;;;;;;35.77;26.03;100748.80;1752606;80;21115;-68
2021/07/24 09:31:46;;;;;;;2.50;1.75;;;;;;;35.85;26.55;100759.27;1752395;82;21386;-68
2021/07/24 09:34:16;;;;;;;1.75;1.65;;;;;;;36.04;26.48;100762.98;1752151;81;20904;-67
2021/07/24 09:36:44;;;;;;;2.87;1.80;;;;;;;36.03;25.61;100759.44;1752422;82;20890;-69
2021/07/24 09:39:18;;;;;;;3.02;1.82;;;;;;;35.94;26.05;100757.45;1752739;82;21544;-71
2021/07/24 09:41:47;;;;;;;3.90;2.00;;;;;;;35.81;24.93;100760.86;1752020;81;22177;-69
2021/07/24 09:44:30;;;;;;;3.60;1.72;;;;;;;35.73;25.71;100755.03;1744596;81;20929;-69
2021/07/24 09:46:57;;;;;;;3.00;1.67;;;;;;;35.70;25.80;100756.38;1743831;81;20885;-69
2021/07/24 09:49:36;;;;;;;3.77;1.80;;;;;;;35.80;26.06;100750.22;1744628;81;20937;-70
2021/07/24 09:52:11;;;;;;;2.60;1.90;;;;;;;35.74;26.21;100749.33;1708610;82;20917;-68
2021/07/24 09:54:38;;;;;;;4.67;2.92;;;;;;;35.48;26.44;100757.18;1708748;84;21476;-70
2021/07/24 09:57:05;;;;;;;2.98;1.95;;;;;;;35.27;26.21;100756.66;1708779;82;20940;-69
2021/07/24 09:59:33;;;;;;;4.75;2.22;;;;;;;35.03;27.32;100751.41;1708790;84;21362;-73
2021/07/24 10:02:09;;;;;;;3.70;1.60;;;;;;;35.17;27.91;100753.80;1708395;82;21006;-76
2021/07/24 10:04:40;;;;;;;2.87;2.08;;;;;;;35.34;27.69;100746.92;1708722;84;21450;-73
2021/07/24 10:07:08;;;;;;;6.90;1.70;;;;;;;35.44;27.34;100748.40;1708907;84;21147;-70
2021/07/24 10:09:38;;;;;;;2.10;1.90;;;;;;;35.57;27.03;100743.09;1708845;84;20888;-70
2021/07/24 10:12:12;;;;;;;5.97;2.40;;;;;;;35.66;26.54;100739.70;1708618;84;21394;-68
2021/07/24 10:14:39;;;;;;;4.37;2.12;;;;;;;35.79;26.17;100736.27;1708870;84;20936;-67
2021/07/24 10:17:08;;;;;;;7.35;1.95;;;;;;;35.92;26.67;100741.86;1708382;84;21536;-71
2021/07/24 10:19:35;;;;;;;5.75;2.85;;;;;;;35.97;26.66;100737.81;1709139;84;21105;-73
2021/07/24 10:22:03;;;;;;;6.37;2.10;;;;;;;35.90;27.07;100739.38;1708333;84;20968;-71
2021/07/24 10:24:30;;;;;;;3.30;1.80;;;;;;;35.78;27.05;100737.37;1709219;84;20889;-72
2021/07/24 10:27:11;;;;;;;3.10;2.35;;;;;;;35.70;27.00;100731.81;1708111;84;21406;-71
2021/07/24 10:29:51;;;;;;;3.98;2.30;;;;;;;35.65;27.01;100742.13;1709565;84;21041;-79
2021/07/24 10:32:27;;;;;;;4.00;2.20;;;;;;;35.76;26.18;100734.88;1708783;82;21597;-79
2021/07/24 10:34:54;;;;;;;3.75;1.70;;;;;;;35.87;26.02;100730.36;1735182;82;20893;-67
2021/07/24 10:37:44;;;;;;;4.67;2.05;;;;;;;35.89;25.94;100727.65;1744633;81;21440;-67
2021/07/24 10:40:28;;;;;;;6.20;2.25;;;;;;;35.93;26.38;100728.48;1744838;82;20917;-68
2021/07/24 10:42:55;;;;;;;7.42;2.10;;;;;;;35.94;26.45;100726.88;1744454;82;20940;-69
2021/07/24 10:45:45;;;;;;;3.60;2.08;;;;;;;35.73;25.13;100734.05;1744606;81;21553;-71
2021/07/24 10:48:21;;;;;;;3.50;2.10;;;;;;;35.59;25.22;100729.48;1743331;80;20980;-73
2021/07/24 10:51:03;;;;;;;4.20;2.42;;;;;;;35.35;25.73;100729.47;1744590;82;20905;-72
2021/07/24 10:54:04;;;;;;;5.83;2.35;;;;;;;35.35;26.05;100732.20;1744626;82;20928;-69
2021/07/24 10:56:37;;;;;;;2.22;2.10;;;;;;;35.43;25.82;100724.39;1709217;83;20983;-69
2021/07/24 10:59:26;;;;;;;;;;;;;;;35.45;26.36;100726.33;1711379;84;21279;-69
2021/07/24 11:01:57;;;;;;;3.00;2.10;;;;;;;35.53;26.33;100722.34;1695348;84;20107;-68
2021/07/24 11:04:42;;;;;;;2.12;1.90;;;;;;;35.60;26.52;100724.32;1708900;84;21415;-72
2021/07/24 11:07:27;;;;;;;3.70;2.60;;;;;;;35.70;26.24;100722.27;1708678;83;21007;-68
2021/07/24 11:09:59;;;;;;;4.42;2.17;;;;;;;35.72;25.16;100719.28;1706529;84;20905;-69
2021/07/24 11:12:38;;;;;;;4.83;2.87;;;;;;;35.60;25.60;100728.41;1708877;84;21127;-68
2021/07/24 11:15:12;;;;;;;3.37;2.35;;;;;;;35.57;25.61;100722.09;1708597;84;20917;-71
2021/07/24 11:17:40;;;;;;;2.70;2.10;;;;;;;35.58;25.93;100725.12;1708561;83;21030;-71
2021/07/24 11:20:13;;;;;;;4.53;2.37;;;;;;;35.67;26.07;100718.14;1708702;84;21004;-71
2021/07/24 11:22:59;;;;;;;5.15;2.27;;;;;;;35.80;25.76;100722.92;1708624;84;20992;-69
2021/07/24 11:25:31;;;;;;;3.52;2.25;;;;;;;35.73;25.98;100723.13;1707897;83;22138;-70
2021/07/24 11:27:59;;;;;;;4.45;2.72;;;;;;;35.31;26.39;100725.08;1708177;83;28548;-69
2021/07/24 11:30:26;;;;;;;6.97;3.45;;;;;;;34.83;27.17;100726.59;1708537;83;20905;-68
2021/07/24 11:32:56;;;;;;;5.87;2.27;;;;;;;34.57;27.17;100725.36;1708777;84;21459;-69
2021/07/24 11:35:30;;;;;;;4.12;2.90;;;;;;;34.53;27.63;100726.41;1708571;84;20873;-68
2021/07/24 11:37:57;;;;;;;2.90;2.58;;;;;;;34.47;27.58;100725.49;1708592;83;21051;-69